TimeMST,TemperatureF,Dew PointF,Humidity,Sea Level PressureIn,VisibilityMPH,Wind Direction,Wind SpeedMPH,Gust SpeedMPH,PrecipitationIn,Events,Conditions,WindDirDegrees,DateUTC
12:15 AM,25.7,22.6,88,29.85,5.0,NW,10.4,-,N/A,Snow,Light Snow,310,2013-02-25 07:15:00
12:35 AM,26.1,21.6,83,29.85,10.0,NW,12.7,-,N/A,,Overcast,320,2013-02-25 07:35:00
12:55 AM,26.6,20.5,78,29.85,10.0,NW,13.8,-,N/A,,Overcast,320,2013-02-25 07:55:00
1:15 AM,26.2,19.8,76,29.86,10.0,WNW,10.4,-,N/A,,Overcast,300,2013-02-25 08:15:00
1:35 AM,26.6,18.1,70,29.87,10.0,NW,12.7,-,N/A,,Overcast,310,2013-02-25 08:35:00
1:55 AM,25.7,17.1,70,29.87,10.0,NW,11.5,-,N/A,,Overcast,320,2013-02-25 08:55:00
2:15 AM,24.1,15.1,69,29.87,10.0,NW,10.4,-,N/A,,Mostly Cloudy,320,2013-02-25 09:15:00
2:35 AM,23.9,13.6,65,29.87,10.0,NW,15.0,-,N/A,,Mostly Cloudy,320,2013-02-25 09:35:00
2:55 AM,23.9,13.1,63,29.88,10.0,NNW,12.7,-,N/A,,Overcast,330,2013-02-25 09:55:00
3:15 AM,22.1,12.2,66,29.88,10.0,NW,10.4,-,N/A,,Scattered Clouds,320,2013-02-25 10:15:00
3:35 AM,26.1,13.8,60,29.88,10.0,NNW,23.0,27.6,N/A,,Scattered Clouds,330,2013-02-25 10:35:00
3:55 AM,25.3,14.0,62,29.89,10.0,NW,16.1,20.7,N/A,,Scattered Clouds,320,2013-02-25 10:55:00
4:15 AM,25.7,14.0,61,29.89,10.0,NNW,18.4,-,N/A,,Scattered Clouds,330,2013-02-25 11:15:00
4:35 AM,24.6,13.1,62,29.90,10.0,NW,17.3,-,N/A,,Mostly Cloudy,320,2013-02-25 11:35:00
5:15 AM,21.0,11.1,66,29.92,10.0,NNW,13.8,-,N/A,,Scattered Clouds,330,2013-02-25 12:15:00
5:35 AM,21.0,10.4,64,29.93,10.0,NNW,10.4,-,N/A,,Clear,340,2013-02-25 12:35:00
5:55 AM,18.0,9.0,68,29.94,10.0,WNW,9.2,-,N/A,,Clear,290,2013-02-25 12:55:00
6:15 AM,16.0,7.9,70,29.94,10.0,NNW,9.2,-,N/A,,Clear,330,2013-02-25 13:15:00
6:35 AM,17.4,8.2,67,29.95,10.0,WNW,6.9,-,N/A,,Clear,300,2013-02-25 13:35:00
6:55 AM,13.1,6.3,74,29.96,10.0,WNW,10.4,-,N/A,,Clear,300,2013-02-25 13:55:00
7:15 AM,17.1,9.5,72,29.97,10.0,West,10.4,-,N/A,,Clear,280,2013-02-25 14:15:00
7:35 AM,17.4,9.7,72,29.98,10.0,WNW,13.8,-,N/A,,Clear,290,2013-02-25 14:35:00
7:55 AM,20.1,11.3,69,29.99,10.0,WNW,10.4,-,N/A,,Clear,290,2013-02-25 14:55:00
8:15 AM,19.9,11.3,69,30.00,10.0,WNW,9.2,-,N/A,,Clear,300,2013-02-25 15:15:00
8:35 AM,22.6,12.0,64,30.00,10.0,WNW,10.4,-,N/A,,Clear,300,2013-02-25 15:35:00
8:55 AM,24.8,12.7,60,30.00,10.0,WNW,12.7,-,N/A,,Clear,290,2013-02-25 15:55:00
9:15 AM,26.6,12.7,56,30.00,10.0,NW,12.7,16.1,N/A,,Clear,310,2013-02-25 16:15:00
9:35 AM,26.6,13.5,58,30.00,10.0,NW,16.1,-,N/A,,Clear,310,2013-02-25 16:35:00
9:55 AM,27.5,14.2,57,30.02,10.0,NW,16.1,-,N/A,,Clear,320,2013-02-25 16:55:00
10:15 AM,28.4,15.6,59,30.02,10.0,NW,16.1,-,N/A,,Clear,320,2013-02-25 17:15:00
10:35 AM,29.5,15.8,57,30.02,10.0,NW,12.7,-,N/A,,Clear,320,2013-02-25 17:35:00
10:55 AM,30.2,16.2,56,30.02,10.0,NW,12.7,-,N/A,,Clear,310,2013-02-25 17:55:00
11:15 AM,31.3,16.3,54,30.02,10.0,NW,11.5,-,N/A,,Clear,310,2013-02-25 18:15:00
11:35 AM,32.0,16.0,52,30.01,10.0,NW,15.0,-,N/A,,Clear,320,2013-02-25 18:35:00
11:55 AM,32.2,15.1,49,30.00,10.0,NW,15.0,-,N/A,,Clear,310,2013-02-25 18:55:00
12:15 PM,32.9,15.8,49,29.99,10.0,NNW,12.7,-,N/A,,Clear,330,2013-02-25 19:15:00
12:35 PM,33.1,18.3,55,29.99,10.0,NW,12.7,-,N/A,,Clear,320,2013-02-25 19:35:00
12:55 PM,33.8,17.1,50,29.97,10.0,NNW,12.7,-,N/A,,Clear,330,2013-02-25 19:55:00
1:15 PM,34.2,17.1,50,29.96,10.0,NNW,13.8,-,N/A,,Clear,330,2013-02-25 20:15:00
1:35 PM,35.1,18.9,52,29.96,10.0,NW,12.7,-,N/A,,Clear,320,2013-02-25 20:35:00
1:55 PM,35.8,18.9,50,29.96,10.0,NW,9.2,-,N/A,,Clear,310,2013-02-25 20:55:00
2:15 PM,36.5,18.3,48,29.96,10.0,NNW,9.2,-,N/A,,Clear,330,2013-02-25 21:15:00
2:35 PM,36.5,17.8,47,29.95,10.0,NNW,8.1,-,N/A,,Clear,340,2013-02-25 21:35:00
2:55 PM,36.7,19.9,51,29.94,10.0,North,6.9,-,N/A,,Clear,10,2013-02-25 21:55:00
3:15 PM,37.4,17.1,44,29.93,10.0,NNE,6.9,-,N/A,,Clear,20,2013-02-25 22:15:00
3:35 PM,38.3,17.4,43,29.93,10.0,NNW,5.8,-,N/A,,Clear,330,2013-02-25 22:35:00
3:55 PM,38.8,17.8,43,29.93,10.0,NW,8.1,-,N/A,,Clear,310,2013-02-25 22:55:00
4:15 PM,38.3,18.1,44,29.92,10.0,NW,6.9,-,N/A,,Clear,320,2013-02-25 23:15:00
4:35 PM,37.0,17.8,46,29.92,10.0,NW,5.8,-,N/A,,Clear,310,2013-02-25 23:35:00
4:55 PM,36.5,14.9,41,29.92,10.0,NW,10.4,-,N/A,,Clear,310,2013-02-25 23:55:00
5:15 PM,34.0,16.0,48,29.92,10.0,NW,10.4,-,N/A,,Clear,310,2013-02-26 00:15:00
5:35 PM,32.0,14.7,49,29.92,10.0,WNW,9.2,-,N/A,,Clear,300,2013-02-26 00:35:00
5:55 PM,29.3,14.0,53,29.92,10.0,WNW,9.2,-,N/A,,Clear,300,2013-02-26 00:55:00
6:15 PM,29.3,12.0,49,29.92,10.0,NW,8.1,-,N/A,,Clear,310,2013-02-26 01:15:00
6:35 PM,29.1,12.0,49,29.93,10.0,South,6.9,11.5,N/A,,Clear,170,2013-02-26 01:35:00
7:15 PM,29.8,8.4,41,29.94,10.0,Calm,Calm,-,N/A,,Clear,0,2013-02-26 02:15:00
7:55 PM,36.0,5.2,28,29.95,10.0,SSW,3.5,-,N/A,,Clear,200,2013-02-26 02:55:00
8:15 PM,31.1,4.8,33,29.95,10.0,WSW,3.5,-,N/A,,Clear,240,2013-02-26 03:15:00
8:35 PM,28.6,4.6,36,29.95,10.0,North,4.6,-,N/A,,Clear,10,2013-02-26 03:35:00
8:55 PM,30.4,5.0,34,29.95,10.0,Calm,Calm,-,N/A,,Clear,0,2013-02-26 03:55:00
9:15 PM,23.9,5.7,46,29.95,10.0,NNE,3.5,-,N/A,,Clear,20,2013-02-26 04:15:00
9:35 PM,27.9,5.5,39,29.96,10.0,Calm,Calm,-,N/A,,Clear,0,2013-02-26 04:35:00
9:55 PM,23.9,5.4,45,29.96,10.0,South,3.5,-,N/A,,Clear,190,2013-02-26 04:55:00
10:15 PM,31.1,4.3,32,29.96,10.0,Calm,Calm,-,N/A,,Clear,0,2013-02-26 05:15:00
10:35 PM,32.9,4.1,30,29.95,10.0,West,3.5,-,N/A,,Clear,260,2013-02-26 05:35:00
10:55 PM,28.6,4.1,35,29.94,10.0,West,3.5,-,N/A,,Clear,270,2013-02-26 05:55:00
11:15 PM,19.4,3.4,50,29.94,10.0,Calm,Calm,-,N/A,,Clear,0,2013-02-26 06:15:00
11:35 PM,17.4,3.7,55,29.93,10.0,WSW,4.6,-,N/A,,Clear,240,2013-02-26 06:35:00
11:55 PM,16.2,2.1,54,29.92,10.0,SSW,6.9,-,N/A,,Clear,200,2013-02-26 06:55:00